Time,TemperatureF,DewpointF,PressureIn,WindDirection,WindDirectionDegrees,WindSpeedMPH,WindSpeedGustMPH,Humidity,HourlyPrecipIn,Conditions,Clouds,dailyrainin,SoftwareType,DateUTC
2015-08-01 00:00:00,64.8,46.2,29.89,West,266,5.0,5.0,51,0.00,,,0.00,Wunderground v.1.12,2015-08-01 06:00:00,
2015-08-01 00:05:00,64.4,46.4,29.89,West,271,5.0,5.0,52,0.00,,,0.00,Wunderground v.1.12,2015-08-01 06:05:00,
2015-08-01 00:10:00,63.9,45.9,29.90,West,272,4.0,4.0,52,0.00,,,0.00,Wunderground v.1.12,2015-08-01 06:10:00,
2015-08-01 00:20:00,63.6,46.1,29.89,West,264,3.0,3.0,53,0.00,,,0.00,Wunderground v.1.12,2015-08-01 06:20:00,
2015-08-01 00:25:00,63.3,45.4,29.89,West,265,3.0,3.0,52,0.00,,,0.00,Wunderground v.1.12,2015-08-01 06:25:00,
2015-08-01 00:30:00,63.1,45.2,29.89,West,266,2.0,2.0,52,0.00,,,0.00,Wunderground v.1.12,2015-08-01 06:30:00,
2015-08-01 00:35:00,63.1,45.2,29.89,West,268,2.0,2.0,52,0.00,,,0.00,Wunderground v.1.12,2015-08-01 06:35:00,
2015-08-01 00:45:00,62.9,45.5,29.90,West,267,0.0,0.0,53,0.00,,,0.00,Wunderground v.1.12,2015-08-01 06:45:00,
2015-08-01 00:55:00,62.3,44.9,29.89,West,266,1.0,1.0,53,0.00,,,0.00,Wunderground v.1.12,2015-08-01 06:55:00,
2015-08-01 01:00:00,62.0,44.7,29.89,West,270,1.0,1.0,53,0.00,,,0.00,Wunderground v.1.12,2015-08-01 07:00:00,
2015-08-01 01:10:00,61.9,45.1,29.89,West,270,0.0,0.0,54,0.00,,,0.00,Wunderground v.1.12,2015-08-01 07:10:00,
2015-08-01 01:15:00,61.1,44.3,29.90,West,270,1.0,1.0,54,0.00,,,0.00,Wunderground v.1.12,2015-08-01 07:15:00,
2015-08-01 01:20:00,61.1,44.3,29.89,West,271,0.0,0.0,54,0.00,,,0.00,Wunderground v.1.12,2015-08-01 07:20:00,
2015-08-01 01:30:00,60.8,44.5,29.89,West,265,4.0,4.0,55,0.00,,,0.00,Wunderground v.1.12,2015-08-01 07:30:00,
2015-08-01 01:35:00,60.5,44.2,29.89,West,271,3.0,3.0,55,0.00,,,0.00,Wunderground v.1.12,2015-08-01 07:35:00,
2015-08-01 01:40:00,60.1,44.3,29.89,West,275,3.0,3.0,56,0.00,,,0.00,Wunderground v.1.12,2015-08-01 07:40:00,
2015-08-01 01:45:00,59.9,44.2,29.89,West,274,3.0,3.0,56,0.00,,,0.00,Wunderground v.1.12,2015-08-01 07:45:00,
2015-08-01 01:50:00,59.5,43.8,29.90,West,267,3.0,3.0,56,0.00,,,0.00,Wunderground v.1.12,2015-08-01 07:50:00,
2015-08-01 01:55:00,59.8,44.1,29.90,West,263,0.0,0.0,56,0.00,,,0.00,Wunderground v.1.12,2015-08-01 07:55:00,
2015-08-01 02:05:00,59.1,43.9,29.89,West,264,4.0,4.0,57,0.00,,,0.00,Wunderground v.1.12,2015-08-01 08:05:00,
2015-08-01 02:10:00,59.1,43.9,29.89,West,266,4.0,4.0,57,0.00,,,0.00,Wunderground v.1.12,2015-08-01 08:10:00,
2015-08-01 02:15:00,58.6,43.9,29.89,West,269,4.0,4.0,58,0.00,,,0.00,Wunderground v.1.12,2015-08-01 08:15:00,
2015-08-01 02:20:00,58.8,43.6,29.90,West,269,3.0,3.0,57,0.00,,,0.00,Wunderground v.1.12,2015-08-01 08:20:00,
2015-08-01 02:25:00,58.5,43.3,29.89,West,274,3.0,3.0,57,0.00,,,0.00,Wunderground v.1.12,2015-08-01 08:25:00,
2015-08-01 02:30:00,58.3,43.1,29.89,WSW,255,1.0,1.0,57,0.00,,,0.00,Wunderground v.1.12,2015-08-01 08:30:00,
2015-08-01 02:40:00,58.3,43.6,29.90,West,268,4.0,4.0,58,0.00,,,0.00,Wunderground v.1.12,2015-08-01 08:40:00,
2015-08-01 02:45:00,57.4,42.7,29.89,West,272,5.0,5.0,58,0.00,,,0.00,Wunderground v.1.12,2015-08-01 08:45:00,
2015-08-01 02:50:00,57.6,43.4,29.89,West,269,4.0,4.0,59,0.00,,,0.00,Wunderground v.1.12,2015-08-01 08:50:00,
2015-08-01 02:55:00,57.1,42.9,29.89,West,268,3.0,3.0,59,0.00,,,0.00,Wunderground v.1.12,2015-08-01 08:55:00,
2015-08-01 03:00:00,57.0,42.8,29.89,West,270,3.0,3.0,59,0.00,,,0.00,Wunderground v.1.12,2015-08-01 09:00:00,
2015-08-01 03:10:00,56.7,42.5,29.89,West,268,1.0,1.0,59,0.00,,,0.00,Wunderground v.1.12,2015-08-01 09:10:00,
2015-08-01 03:15:00,56.6,42.4,29.89,West,266,2.0,2.0,59,0.00,,,0.00,Wunderground v.1.12,2015-08-01 09:15:00,
2015-08-01 03:20:00,56.4,42.7,29.90,West,266,4.0,4.0,60,0.00,,,0.00,Wunderground v.1.12,2015-08-01 09:20:00,
2015-08-01 03:25:00,55.9,41.8,29.89,West,271,3.0,3.0,59,0.00,,,0.00,Wunderground v.1.12,2015-08-01 09:25:00,
2015-08-01 03:30:00,56.0,42.3,29.90,West,270,1.0,1.0,60,0.00,,,0.00,Wunderground v.1.12,2015-08-01 09:30:00,
2015-08-01 03:35:00,55.7,42.0,29.89,West,271,1.0,1.0,60,0.00,,,0.00,Wunderground v.1.12,2015-08-01 09:35:00,
2015-08-01 03:45:00,55.4,42.2,29.89,West,272,3.0,3.0,61,0.00,,,0.00,Wunderground v.1.12,2015-08-01 09:45:00,
2015-08-01 03:50:00,55.2,42.0,29.89,West,275,2.0,2.0,61,0.00,,,0.00,Wunderground v.1.12,2015-08-01 09:50:00,
2015-08-01 03:55:00,54.9,42.1,29.89,West,273,4.0,4.0,62,0.00,,,0.00,Wunderground v.1.12,2015-08-01 09:55:00,
2015-08-01 04:05:00,54.6,41.4,29.89,West,266,4.0,4.0,61,0.00,,,0.00,Wunderground v.1.12,2015-08-01 10:05:00,
2015-08-01 04:10:00,54.4,41.2,29.89,West,265,4.0,4.0,61,0.00,,,0.00,Wunderground v.1.12,2015-08-01 10:10:00,
2015-08-01 04:25:00,54.2,41.0,29.89,West,269,0.0,0.0,61,0.00,,,0.00,Wunderground v.1.12,2015-08-01 10:25:00,
2015-08-01 04:30:00,53.9,41.6,29.89,West,264,3.0,3.0,63,0.00,,,0.00,Wunderground v.1.12,2015-08-01 10:30:00,
2015-08-01 04:35:00,53.8,41.1,29.89,West,269,2.0,2.0,62,0.00,,,0.00,Wunderground v.1.12,2015-08-01 10:35:00,
2015-08-01 04:40:00,54.0,41.7,29.89,West,269,4.0,4.0,63,0.00,,,0.00,Wunderground v.1.12,2015-08-01 10:40:00,
2015-08-01 04:45:00,53.5,41.2,29.89,West,261,5.0,5.0,63,0.00,,,0.00,Wunderground v.1.12,2015-08-01 10:45:00,
2015-08-01 04:55:00,52.8,40.5,29.89,WNW,282,2.0,2.0,63,0.00,,,0.00,Wunderground v.1.12,2015-08-01 10:55:00,
2015-08-01 05:00:00,52.6,40.4,29.89,West,272,2.0,2.0,63,0.00,,,0.00,Wunderground v.1.12,2015-08-01 11:00:00,
2015-08-01 05:05:00,52.6,40.4,29.90,West,270,4.0,4.0,63,0.00,,,0.00,Wunderground v.1.12,2015-08-01 11:05:00,
2015-08-01 05:10:00,52.3,40.1,29.90,West,269,1.0,1.0,63,0.00,,,0.00,Wunderground v.1.12,2015-08-01 11:10:00,
2015-08-01 05:15:00,52.7,40.5,29.89,West,270,1.0,1.0,63,0.00,,,0.00,Wunderground v.1.12,2015-08-01 11:15:00,
2015-08-01 05:25:00,52.6,40.8,29.89,West,262,4.0,4.0,64,0.00,,,0.00,Wunderground v.1.12,2015-08-01 11:25:00,
2015-08-01 05:30:00,52.3,40.1,29.90,West,263,1.0,1.0,63,0.00,,,0.00,Wunderground v.1.12,2015-08-01 11:30:00,
2015-08-01 05:35:00,51.9,39.7,29.90,West,264,0.0,0.0,63,0.00,,,0.00,Wunderground v.1.12,2015-08-01 11:35:00,
2015-08-01 05:40:00,51.7,39.9,29.89,West,265,4.0,4.0,64,0.00,,,0.00,Wunderground v.1.12,2015-08-01 11:40:00,
2015-08-01 05:45:00,51.5,39.7,29.89,West,269,4.0,4.0,64,0.00,,,0.00,Wunderground v.1.12,2015-08-01 11:45:00,
2015-08-01 05:50:00,51.5,40.1,29.90,West,267,1.0,1.0,65,0.00,,,0.00,Wunderground v.1.12,2015-08-01 11:50:00,
2015-08-01 06:00:00,51.3,39.5,29.89,West,267,1.0,1.0,64,0.00,,,0.00,Wunderground v.1.12,2015-08-01 12:00:00,
2015-08-01 06:05:00,51.0,39.6,29.89,West,268,1.0,1.0,65,0.00,,,0.00,Wunderground v.1.12,2015-08-01 12:05:00,
2015-08-01 06:10:00,50.9,39.9,29.89,West,267,1.0,1.0,66,0.00,,,0.00,Wunderground v.1.12,2015-08-01 12:10:00,
2015-08-01 06:15:00,50.7,39.4,29.89,West,268,0.0,0.0,65,0.00,,,0.00,Wunderground v.1.12,2015-08-01 12:15:00,
2015-08-01 06:20:00,50.8,39.5,29.89,West,268,2.0,2.0,65,0.00,,,0.00,Wunderground v.1.12,2015-08-01 12:20:00,
2015-08-01 06:25:00,50.6,39.7,29.90,West,268,0.0,0.0,66,0.00,,,0.00,Wunderground v.1.12,2015-08-01 12:25:00,
2015-08-01 06:35:00,50.3,39.4,29.89,West,268,4.0,4.0,66,0.00,,,0.00,Wunderground v.1.12,2015-08-01 12:35:00,
2015-08-01 06:40:00,50.2,39.3,29.89,West,267,5.0,5.0,66,0.00,,,0.00,Wunderground v.1.12,2015-08-01 12:40:00,
2015-08-01 06:45:00,50.0,39.1,29.90,West,267,2.0,2.0,66,0.00,,,0.00,Wunderground v.1.12,2015-08-01 12:45:00,
2015-08-01 06:50:00,50.0,39.1,29.89,West,276,5.0,5.0,66,0.00,,,0.00,Wunderground v.1.12,2015-08-01 12:50:00,
2015-08-01 06:55:00,49.9,39.0,29.90,West,271,4.0,4.0,66,0.00,,,0.00,Wunderground v.1.12,2015-08-01 12:55:00,
2015-08-01 07:00:00,50.4,39.9,29.89,West,267,2.0,2.0,67,0.00,,,0.00,Wunderground v.1.12,2015-08-01 13:00:00,
2015-08-01 07:10:00,50.5,39.6,29.90,West,270,1.0,1.0,66,0.00,,,0.00,Wunderground v.1.12,2015-08-01 13:10:00,
2015-08-01 07:15:00,50.6,39.3,29.89,West,270,0.0,0.0,65,0.00,,,0.00,Wunderground v.1.12,2015-08-01 13:15:00,
2015-08-01 07:20:00,51.2,40.2,29.90,West,270,0.0,0.0,66,0.00,,,0.00,Wunderground v.1.12,2015-08-01 13:20:00,
2015-08-01 07:25:00,51.5,40.1,29.89,West,270,0.0,0.0,65,0.00,,,0.00,Wunderground v.1.12,2015-08-01 13:25:00,
2015-08-01 07:30:00,51.7,39.9,29.89,West,270,0.0,0.0,64,0.00,,,0.00,Wunderground v.1.12,2015-08-01 13:30:00,
2015-08-01 07:35:00,52.0,40.6,29.89,West,270,3.0,3.0,65,0.00,,,0.00,Wunderground v.1.12,2015-08-01 13:35:00,
2015-08-01 07:45:00,52.8,41.7,29.89,West,270,0.0,0.0,66,0.00,,,0.00,Wunderground v.1.12,2015-08-01 13:45:00,
2015-08-01 07:50:00,52.8,41.0,29.89,West,270,0.0,0.0,64,0.00,,,0.00,Wunderground v.1.12,2015-08-01 13:50:00,
2015-08-01 07:55:00,53.1,40.8,29.89,West,270,0.0,0.0,63,0.00,,,0.00,Wunderground v.1.12,2015-08-01 13:55:00,
2015-08-01 08:00:00,53.6,41.7,29.89,West,270,0.0,0.0,64,0.00,,,0.00,Wunderground v.1.12,2015-08-01 14:00:00,
2015-08-01 08:05:00,53.7,42.2,29.89,West,270,0.0,0.0,65,0.00,,,0.00,Wunderground v.1.12,2015-08-01 14:05:00,
2015-08-01 08:10:00,54.5,43.4,29.89,West,270,0.0,0.0,66,0.00,,,0.00,Wunderground v.1.12,2015-08-01 14:10:00,
2015-08-01 08:20:00,55.5,43.9,29.90,West,271,0.0,0.0,65,0.00,,,0.00,Wunderground v.1.12,2015-08-01 14:20:00,
2015-08-01 08:25:00,55.8,44.2,29.89,West,270,0.0,0.0,65,0.00,,,0.00,Wunderground v.1.12,2015-08-01 14:25:00,
2015-08-01 08:30:00,56.1,44.9,29.89,West,270,0.0,0.0,66,0.00,,,0.00,Wunderground v.1.12,2015-08-01 14:30:00,
2015-08-01 08:40:00,57.0,46.5,29.89,West,270,0.0,0.0,68,0.00,,,0.00,Wunderground v.1.12,2015-08-01 14:40:00,
2015-08-01 08:45:00,57.4,47.3,29.89,West,270,0.0,0.0,69,0.00,,,0.00,Wunderground v.1.12,2015-08-01 14:45:00,
2015-08-01 08:50:00,57.5,46.6,29.90,West,270,0.0,0.0,67,0.00,,,0.00,Wunderground v.1.12,2015-08-01 14:50:00,
2015-08-01 08:55:00,58.1,47.2,29.89,West,270,0.0,0.0,67,0.00,,,0.00,Wunderground v.1.12,2015-08-01 14:55:00,
2015-08-01 09:00:00,58.6,47.3,29.89,West,270,0.0,0.0,66,0.00,,,0.00,Wunderground v.1.12,2015-08-01 15:00:00,
2015-08-01 09:10:00,59.8,48.4,29.89,West,267,1.0,1.0,66,0.00,,,0.00,Wunderground v.1.12,2015-08-01 15:10:00,
2015-08-01 09:15:00,60.8,48.1,29.89,SSE,152,1.0,1.0,63,0.00,,,0.00,Wunderground v.1.12,2015-08-01 15:15:00,
2015-08-01 09:20:00,61.6,47.6,29.89,SE,144,2.0,2.0,60,0.00,,,0.00,Wunderground v.1.12,2015-08-01 15:20:00,
2015-08-01 09:35:00,63.5,48.9,29.89,SE,130,1.0,1.0,59,0.00,,,0.00,Wunderground v.1.12,2015-08-01 15:35:00,
2015-08-01 09:45:00,65.5,48.9,29.89,ESE,109,0.0,0.0,55,0.00,,,0.00,Wunderground v.1.12,2015-08-01 15:45:00,
2015-08-01 09:50:00,66.8,48.6,29.90,ESE,109,0.0,0.0,52,0.00,,,0.00,Wunderground v.1.12,2015-08-01 15:50:00,
2015-08-01 10:00:00,70.1,50.0,29.89,ESE,110,2.0,2.0,49,0.00,,,0.00,Wunderground v.1.12,2015-08-01 16:00:00,
2015-08-01 10:05:00,72.2,52.0,29.89,ENE,62,4.0,4.0,49,0.00,,,0.00,Wunderground v.1.12,2015-08-01 16:05:00,
2015-08-01 10:15:00,74.4,52.9,29.89,ENE,64,2.0,2.0,47,0.00,,,0.00,Wunderground v.1.12,2015-08-01 16:15:00,
2015-08-01 10:20:00,75.7,53.4,29.89,East,85,1.0,1.0,46,0.00,,,0.00,Wunderground v.1.12,2015-08-01 16:20:00,
2015-08-01 10:25:00,77.2,51.7,29.89,NE,45,2.0,2.0,41,0.00,,,0.00,Wunderground v.1.12,2015-08-01 16:25:00,
2015-08-01 10:35:00,78.7,53.7,29.89,East,100,2.0,2.0,42,0.00,,,0.00,Wunderground v.1.12,2015-08-01 16:35:00,
2015-08-01 10:40:00,79.7,53.9,29.89,ENE,75,2.0,2.0,41,0.00,,,0.00,Wunderground v.1.12,2015-08-01 16:40:00,
2015-08-01 10:45:00,80.5,54.6,29.89,ESE,111,4.0,4.0,41,0.00,,,0.00,Wunderground v.1.12,2015-08-01 16:45:00,
2015-08-01 10:55:00,82.3,54.9,29.89,East,96,0.0,0.0,39,0.00,,,0.00,Wunderground v.1.12,2015-08-01 16:55:00,
2015-08-01 11:05:00,83.8,53.2,29.89,NNE,30,0.0,0.0,35,0.00,,,0.00,Wunderground v.1.12,2015-08-01 17:05:00,
2015-08-01 11:10:00,84.1,54.3,29.89,ENE,69,3.0,3.0,36,0.00,,,0.00,Wunderground v.1.12,2015-08-01 17:10:00,
2015-08-01 11:15:00,84.7,54.0,29.90,NE,40,2.0,2.0,35,0.00,,,0.00,Wunderground v.1.12,2015-08-01 17:15:00,
2015-08-01 11:25:00,85.0,53.5,29.89,ENE,62,3.0,3.0,34,0.00,,,0.00,Wunderground v.1.12,2015-08-01 17:25:00,
2015-08-01 11:30:00,85.9,54.3,29.89,NE,34,6.0,6.0,34,0.00,,,0.00,Wunderground v.1.12,2015-08-01 17:30:00,
2015-08-01 11:35:00,86.6,54.1,29.90,NNE,20,8.0,8.0,33,0.00,,,0.00,Wunderground v.1.12,2015-08-01 17:35:00,
2015-08-01 11:45:00,87.6,54.9,29.89,ENE,64,1.0,1.0,33,0.00,,,0.00,Wunderground v.1.12,2015-08-01 17:45:00,
2015-08-01 11:50:00,88.2,57.1,29.89,NE,41,5.0,5.0,35,0.00,,,0.00,Wunderground v.1.12,2015-08-01 17:50:00,
2015-08-01 12:00:00,89.1,57.1,29.89,NE,36,4.0,4.0,34,0.00,,,0.00,Wunderground v.1.12,2015-08-01 18:00:00,
2015-08-01 12:05:00,89.7,56.8,29.89,ENE,78,2.0,2.0,33,0.00,,,0.00,Wunderground v.1.12,2015-08-01 18:05:00,
2015-08-01 12:10:00,89.8,56.9,29.89,ENE,70,2.0,2.0,33,0.00,,,0.00,Wunderground v.1.12,2015-08-01 18:10:00,
2015-08-01 12:15:00,90.7,57.6,29.89,NE,36,5.0,5.0,33,0.00,,,0.00,Wunderground v.1.12,2015-08-01 18:15:00,
2015-08-01 12:20:00,90.6,58.4,29.89,East,87,1.0,1.0,34,0.00,,,0.00,Wunderground v.1.12,2015-08-01 18:20:00,
2015-08-01 12:30:00,92.1,58.9,29.90,ESE,109,3.0,3.0,33,0.00,,,0.00,Wunderground v.1.12,2015-08-01 18:30:00,
2015-08-01 12:35:00,92.1,58.9,29.90,NE,36,0.0,0.0,33,0.00,,,0.00,Wunderground v.1.12,2015-08-01 18:35:00,
2015-08-01 12:40:00,92.8,57.7,29.89,NE,34,5.0,5.0,31,0.00,,,0.00,Wunderground v.1.12,2015-08-01 18:40:00,
2015-08-01 12:45:00,92.5,58.4,29.89,ESE,121,0.0,0.0,32,0.00,,,0.00,Wunderground v.1.12,2015-08-01 18:45:00,
2015-08-01 12:50:00,93.5,60.1,29.89,NE,47,5.0,5.0,33,0.00,,,0.00,Wunderground v.1.12,2015-08-01 18:50:00,